Terminal Aerodrome Forecast
Issued by NWS

Home | Current Version | Previous Version | Text Only | Print | Product List | Glossary On
Versions: 1 2 3 4 5 6 7 8 9 10 11 12 13 14 15 16 17 18 19 20 21 22 23 24 25 26 27 28
000
FTUS41 KBOX 031122
TAFBAF
TAF
KBAF 031122Z 0312/0412 00000KT P6SM SKC
     FM031800 28006KT P6SM SCT080
     FM032100 27006KT P6SM BKN070
     FM032200 26005KT P6SM SCT070
     FM040300 00000KT P6SM SCT100=

USA.gov is the U.S. government's official web portal to all federal, state and local government web resources and services.